Time;durP1;ratioP1;P1;durP2;ratioP2;P2;SDS_P1;SDS_P2;PMS_P1;PMS_P2;Temp;Humidity;BMP_temperature;BMP_pressure;BME280_temperature;BME280_humidity;BME280_pressure;Samples;Min_cycle;Max_cycle;Signal;HPM_P1;HPM_P2
2023/01/03 00:01:23;;;;;;;11.35;4.22;;;9.10;99.90;;;;;;5089459;28;20048;-78
2023/01/03 00:03:49;;;;;;;15.15;5.28;;;9.00;99.90;;;;;;5090869;28;20028;-78
2023/01/03 00:06:23;;;;;;;16.00;5.15;;;8.90;99.90;;;;;;5090405;28;20074;-79
2023/01/03 00:08:50;;;;;;;15.25;4.70;;;9.00;99.90;;;;;;5090104;28;20048;-77
2023/01/03 00:12:22;;;;;;;9.70;4.63;;;8.90;99.90;;;;;;5089412;28;20047;-78
2023/01/03 00:14:12;;;;;;;10.30;4.25;;;8.90;99.90;;;;;;5090664;28;20040;-77
2023/01/03 00:16:38;;;;;;;10.82;4.70;;;8.90;99.90;;;;;;5089855;28;20032;-77
2023/01/03 00:19:08;;;;;;;12.48;4.38;;;8.80;99.90;;;;;;5088589;28;20450;-77
2023/01/03 00:21:34;;;;;;;11.48;4.85;;;8.90;99.90;;;;;;5088491;28;20036;-78
2023/01/03 00:24:01;;;;;;;10.25;4.20;;;8.90;99.90;;;;;;5089943;28;20020;-77
2023/01/03 00:26:27;;;;;;;11.88;5.20;;;8.90;99.90;;;;;;5089962;28;20063;-77
2023/01/03 00:28:53;;;;;;;13.43;5.32;;;8.90;99.90;;;;;;5089505;28;20169;-78
2023/01/03 00:31:19;;;;;;;12.18;5.63;;;8.80;99.90;;;;;;5089536;28;20122;-78
2023/01/03 00:33:44;;;;;;;9.95;4.53;;;8.80;99.90;;;;;;5089723;28;20097;-77
2023/01/03 00:36:10;;;;;;;11.68;4.97;;;8.70;99.90;;;;;;5089900;28;20034;-78
2023/01/03 00:38:37;;;;;;;12.15;4.93;;;8.80;99.90;;;;;;5088444;28;20068;-78
2023/01/03 00:41:08;;;;;;;11.80;4.70;;;8.80;99.90;;;;;;5089358;28;20377;-78
2023/01/03 00:43:34;;;;;;;14.30;4.63;;;8.80;99.90;;;;;;5089362;28;20051;-77
2023/01/03 00:46:00;;;;;;;6.93;3.55;;;8.80;99.90;;;;;;5088211;28;20051;-78
2023/01/03 00:48:26;;;;;;;10.75;4.57;;;8.80;99.90;;;;;;5089280;28;20032;-77
2023/01/03 00:50:53;;;;;;;10.02;4.20;;;8.90;99.90;;;;;;5089666;28;20039;-78
2023/01/03 00:53:19;;;;;;;10.57;4.10;;;8.90;99.90;;;;;;5089061;28;20033;-77
2023/01/03 00:55:45;;;;;;;10.68;3.78;;;8.80;99.90;;;;;;5088259;28;20036;-78
2023/01/03 00:58:11;;;;;;;7.00;3.35;;;8.80;99.90;;;;;;5088095;28;20081;-79
2023/01/03 01:00:36;;;;;;;9.48;3.78;;;8.60;99.90;;;;;;5089254;28;20032;-77
2023/01/03 01:03:02;;;;;;;11.57;4.13;;;8.60;99.90;;;;;;5089907;28;20318;-77
2023/01/03 01:05:29;;;;;;;19.35;4.68;;;8.60;99.90;;;;;;5089290;28;20468;-77
2023/01/03 01:07:55;;;;;;;7.90;3.70;;;8.60;99.90;;;;;;5088171;28;20102;-76
2023/01/03 01:10:21;;;;;;;11.75;4.30;;;8.60;99.90;;;;;;5090635;28;20033;-77
2023/01/03 01:12:46;;;;;;;13.98;3.95;;;8.70;99.90;;;;;;5091597;28;20347;-77
2023/01/03 01:15:13;;;;;;;12.55;4.38;;;8.60;99.90;;;;;;5046765;28;1282354;-77
2023/01/03 01:17:39;;;;;;;12.57;3.85;;;8.60;99.90;;;;;;5092850;28;20036;-77
2023/01/03 01:20:06;;;;;;;13.98;4.03;;;8.60;99.90;;;;;;5093680;28;20047;-77
2023/01/03 01:22:35;;;;;;;11.27;3.58;;;8.60;99.90;;;;;;5092256;28;20054;-77
2023/01/03 01:25:01;;;;;;;15.63;3.90;;;8.60;99.90;;;;;;5093512;28;20036;-77
2023/01/03 01:27:27;;;;;;;11.60;3.50;;;8.50;99.90;;;;;;5092275;28;20434;-78
2023/01/03 01:29:52;;;;;;;15.70;3.78;;;8.50;99.90;;;;;;5092852;28;20336;-79
2023/01/03 01:32:18;;;;;;;9.88;3.80;;;8.50;99.90;;;;;;5093657;28;20038;-77
2023/01/03 01:34:44;;;;;;;9.57;3.88;;;8.50;99.90;;;;;;5093469;28;20036;-78
2023/01/03 01:37:10;;;;;;;10.48;3.38;;;8.50;99.90;;;;;;5093194;28;20052;-76
2023/01/03 01:39:36;;;;;;;11.18;3.45;;;8.50;99.90;;;;;;5093268;28;20108;-77
2023/01/03 01:45:05;;;;;;;8.40;3.05;;;8.40;99.90;;;;;;5093175;28;20046;-78
2023/01/03 01:47:39;;;;;;;17.30;4.13;;;8.40;99.90;;;;;;5092909;28;20437;-78
2023/01/03 01:50:27;;;;;;;10.02;3.20;;;8.40;99.90;;;;;;5091728;28;20036;-78
2023/01/03 01:53:06;;;;;;;;;;;8.50;99.90;;;;;;5093222;28;20588;-79
2023/01/03 01:55:39;;;;;;;15.40;3.55;;;8.40;99.90;;;;;;5092936;28;19908;-78
2023/01/03 01:58:06;;;;;;;12.48;3.97;;;8.40;99.90;;;;;;5092779;28;20037;-78
2023/01/03 02:00:32;;;;;;;10.57;4.13;;;8.50;99.90;;;;;;5091430;28;20031;-79
2023/01/03 02:02:59;;;;;;;9.43;4.10;;;8.20;99.90;;;;;;5093102;28;20028;-78
2023/01/03 02:05:26;;;;;;;9.80;4.30;;;8.30;99.90;;;;;;5092766;28;20024;-79
2023/01/03 02:07:52;;;;;;;9.45;4.65;;;8.30;99.90;;;;;;5092332;28;20374;-78
2023/01/03 02:10:42;;;;;;;7.05;3.40;;;8.30;99.90;;;;;;5091327;28;20035;-78
2023/01/03 02:13:37;;;;;;;21.20;10.80;;;8.30;99.90;;;;;;5091376;28;20029;-78
2023/01/03 02:16:15;;;;;;;32.03;17.10;;;8.30;99.90;;;;;;5090750;28;20040;-78
2023/01/03 02:18:56;;;;;;;17.02;6.28;;;8.30;99.90;;;;;;5092486;28;20069;-79
2023/01/03 02:21:36;;;;;;;15.90;6.40;;;8.20;99.90;;;;;;5091037;28;20438;-78
2023/01/03 02:24:41;;;;;;;10.95;4.40;;;8.20;99.90;;;;;;5091777;28;20026;-79
2023/01/03 02:27:21;;;;;;;10.05;3.83;;;8.20;99.90;;;;;;5083026;28;20362;-77
2023/01/03 02:30:06;;;;;;;14.50;4.05;;;8.20;99.90;;;;;;5092162;28;20379;-78
2023/01/03 02:33:06;;;;;;;6.93;3.13;;;8.20;99.90;;;;;;5090993;28;20101;-77
2023/01/03 02:35:42;;;;;;;12.18;4.45;;;8.30;99.90;;;;;;5096967;28;20028;-78
2023/01/03 02:38:21;;;;;;;10.10;4.13;;;8.20;99.90;;;;;;5112301;28;20032;-77
2023/01/03 02:41:04;;;;;;;14.25;4.47;;;8.20;99.90;;;;;;5112181;28;20354;-79
2023/01/03 02:43:41;;;;;;;9.10;4.22;;;8.20;99.90;;;;;;5112130;28;20364;-78
2023/01/03 02:46:32;;;;;;;15.70;4.32;;;8.20;99.90;;;;;;5112170;28;20043;-78
2023/01/03 02:49:09;;;;;;;11.93;4.32;;;8.30;99.90;;;;;;5110975;28;20031;-78
2023/01/03 02:51:36;;;;;;;8.23;3.90;;;8.20;99.90;;;;;;5110874;27;20414;-79
2023/01/03 02:54:04;;;;;;;17.97;4.00;;;8.20;99.90;;;;;;5112577;28;20027;-78
2023/01/03 02:56:57;;;;;;;11.55;4.15;;;8.20;99.90;;;;;;5111770;28;20043;-78
2023/01/03 02:59:34;;;;;;;8.30;3.85;;;8.20;99.90;;;;;;5111887;28;20028;-78
2023/01/03 03:02:01;;;;;;;12.60;3.90;;;8.20;99.90;;;;;;5111903;28;20101;-79
2023/01/03 03:04:28;;;;;;;13.00;3.78;;;8.30;99.90;;;;;;5110945;28;20510;-79
2023/01/03 03:07:02;;;;;;;10.20;3.80;;;8.20;99.90;;;;;;5110706;28;20112;-79
2023/01/03 03:09:29;;;;;;;12.00;3.40;;;8.20;99.90;;;;;;5111922;28;20023;-79
2023/01/03 03:14:51;;;;;;;8.93;3.75;;;8.30;99.90;;;;;;5111869;28;20039;-79
2023/01/03 03:17:23;;;;;;;7.30;3.65;;;8.20;99.90;;;;;;5112009;28;20457;-78
2023/01/03 03:25:34;;;;;;;11.68;3.20;;;8.50;99.90;;;;;;5111572;28;20523;-79
2023/01/03 03:30:53;;;;;;;8.63;3.20;;;8.30;99.90;;;;;;5112130;28;20116;-78
2023/01/03 03:33:23;;;;;;;9.18;3.33;;;8.20;99.90;;;;;;5110374;28;20032;-78
2023/01/03 03:35:59;;;;;;;8.77;3.55;;;8.20;99.90;;;;;;5112144;28;20034;-78
2023/01/03 03:38:32;;;;;;;11.10;3.83;;;8.30;99.90;;;;;;5111606;28;20035;-78
2023/01/03 03:47:33;;;;;;;12.57;3.72;;;8.30;99.90;;;;;;5111613;28;20042;-79
2023/01/03 03:50:26;;;;;;;11.88;3.60;;;8.20;99.90;;;;;;5111804;28;20472;-78
2023/01/03 03:52:57;;;;;;;9.18;3.67;;;8.10;99.90;;;;;;5107165;28;20032;-78
2023/01/03 03:55:29;;;;;;;12.32;4.15;;;8.20;99.90;;;;;;5110213;28;20039;-78
2023/01/03 03:58:10;;;;;;;6.80;3.15;;;8.10;99.90;;;;;;5111420;28;20104;-78
2023/01/03 04:00:39;;;;;;;11.40;4.72;;;8.10;99.90;;;;;;5111086;28;20063;-78
2023/01/03 04:03:07;;;;;;;9.65;3.55;;;8.20;99.90;;;;;;5111037;28;20478;-79
2023/01/03 04:05:39;;;;;;;11.82;3.55;;;8.10;99.90;;;;;;5111140;28;20023;-79
2023/01/03 04:08:06;;;;;;;9.82;4.32;;;8.00;99.90;;;;;;5109982;28;20040;-78
2023/01/03 04:10:32;;;;;;;10.63;4.13;;;8.00;99.90;;;;;;5110004;28;20023;-79
2023/01/03 04:12:58;;;;;;;8.57;4.30;;;8.00;99.90;;;;;;5110822;28;20046;-79
2023/01/03 04:15:23;;;;;;;8.85;3.97;;;8.10;99.90;;;;;;5109991;28;20126;-78
2023/01/03 04:17:49;;;;;;;12.45;4.85;;;8.20;99.90;;;;;;5111502;28;20012;-79
2023/01/03 04:20:15;;;;;;;10.82;5.07;;;8.10;99.90;;;;;;5111256;28;20031;-78
2023/01/03 04:22:41;;;;;;;8.68;4.70;;;8.00;99.90;;;;;;5110833;28;20426;-78
2023/01/03 04:25:07;;;;;;;8.85;4.68;;;8.10;99.90;;;;;;5110987;28;20142;-78
2023/01/03 04:27:33;;;;;;;12.23;4.90;;;8.00;99.90;;;;;;5109675;28;20046;-79
2023/01/03 04:29:59;;;;;;;14.85;5.03;;;8.00;99.90;;;;;;5111765;28;20103;-79
2023/01/03 04:32:24;;;;;;;10.80;4.43;;;8.00;99.90;;;;;;5109661;28;20055;-78
2023/01/03 04:34:50;;;;;;;16.15;5.05;;;8.00;99.90;;;;;;5110895;28;20039;-78
2023/01/03 04:37:16;;;;;;;14.10;5.00;;;8.00;99.90;;;;;;5110863;28;20060;-78
2023/01/03 04:39:41;;;;;;;13.82;5.20;;;8.00;99.90;;;;;;5110872;28;20542;-79
2023/01/03 04:44:51;;;;;;;11.35;5.85;;;7.90;99.90;;;;;;5111664;28;20353;-78
2023/01/03 04:47:17;;;;;;;11.93;5.78;;;8.20;99.90;;;;;;5114612;28;20032;-76
2023/01/03 04:49:45;;;;;;;14.75;6.03;;;7.90;99.90;;;;;;5114884;28;20028;-78
2023/01/03 04:52:11;;;;;;;11.40;4.57;;;8.00;99.90;;;;;;5114787;28;20076;-79
2023/01/03 04:54:40;;;;;;;11.15;5.07;;;8.00;99.90;;;;;;5113744;28;20038;-78
2023/01/03 04:57:06;;;;;;;16.13;5.90;;;8.00;99.90;;;;;;5114929;28;20545;-78
2023/01/03 04:59:32;;;;;;;12.85;5.72;;;8.00;99.90;;;;;;5113498;28;20031;-79
2023/01/03 05:01:57;;;;;;;15.80;6.00;;;8.00;99.90;;;;;;5114101;28;20362;-78
2023/01/03 05:04:23;;;;;;;10.73;5.40;;;8.10;99.90;;;;;;5113138;28;20441;-79
2023/01/03 05:06:51;;;;;;;11.30;4.97;;;8.30;99.90;;;;;;5112707;28;20329;-79
2023/01/03 05:09:18;;;;;;;11.25;5.38;;;8.10;99.90;;;;;;5113805;28;20043;-79
2023/01/03 05:11:43;;;;;;;11.48;5.43;;;8.10;99.90;;;;;;5114579;28;20016;-78
2023/01/03 05:14:09;;;;;;;13.57;5.63;;;8.20;99.90;;;;;;5113916;28;20042;-78
2023/01/03 05:16:35;;;;;;;13.50;5.22;;;8.20;99.90;;;;;;5112718;28;20131;-78
2023/01/03 05:19:00;;;;;;;13.07;6.07;;;8.10;99.90;;;;;;5113970;28;20024;-78
2023/01/03 05:27:00;;;;;;;11.85;6.00;;;8.20;99.90;;;;;;5114230;28;20046;-78
2023/01/03 05:29:27;;;;;;;15.73;6.35;;;8.20;99.90;;;;;;5113722;28;20070;-78
2023/01/03 05:31:53;;;;;;;12.35;6.30;;;8.30;99.90;;;;;;5113640;28;20024;-78
2023/01/03 05:34:19;;;;;;;17.30;7.07;;;8.30;99.90;;;;;;5113634;28;20423;-79
2023/01/03 05:36:44;;;;;;;14.93;7.20;;;8.30;99.90;;;;;;5112407;28;20036;-78
2023/01/03 05:39:10;;;;;;;18.38;7.50;;;8.30;99.90;;;;;;5113991;28;20114;-78
2023/01/03 05:44:20;;;;;;;15.13;8.05;;;8.40;99.90;;;;;;5113595;28;20122;-78
2023/01/03 05:46:46;;;;;;;15.85;7.72;;;8.30;99.90;;;;;;5113305;28;20127;-79
2023/01/03 05:49:12;;;;;;;16.10;8.35;;;8.40;99.90;;;;;;5113208;28;20106;-78
2023/01/03 05:51:38;;;;;;;18.02;8.20;;;8.40;99.90;;;;;;5112152;28;20101;-78
2023/01/03 05:54:04;;;;;;;17.08;8.20;;;8.40;99.90;;;;;;5113774;28;20114;-77
2023/01/03 05:56:31;;;;;;;15.85;8.32;;;8.50;99.90;;;;;;5113113;28;20020;-77
2023/01/03 05:58:57;;;;;;;20.52;9.48;;;8.50;99.90;;;;;;5113392;28;20522;-77
2023/01/03 06:01:25;;;;;;;15.77;8.55;;;8.60;99.90;;;;;;5113346;27;20032;-79
2023/01/03 06:03:54;;;;;;;31.45;14.27;;;8.50;99.90;;;;;;5113033;28;20036;-78
2023/01/03 06:06:20;;;;;;;24.98;14.05;;;8.50;99.90;;;;;;5111871;28;20343;-79
2023/01/03 06:08:45;;;;;;;26.70;12.93;;;8.50;99.90;;;;;;5113273;28;20299;-78
2023/01/03 06:11:14;;;;;;;25.33;11.93;;;8.60;99.90;;;;;;5111707;28;20458;-78
2023/01/03 06:13:40;;;;;;;18.40;9.48;;;8.50;99.90;;;;;;5112678;27;20035;-78
2023/01/03 06:18:52;;;;;;;18.55;10.07;;;8.50;99.90;;;;;;5112865;28;20402;-77
2023/01/03 06:21:18;;;;;;;26.23;10.63;;;8.50;99.90;;;;;;5111563;28;20031;-77
2023/01/03 06:23:46;;;;;;;20.65;10.20;;;8.50;99.90;;;;;;5111799;28;20028;-77
2023/01/03 06:26:15;;;;;;;24.52;10.25;;;8.50;99.90;;;;;;5111606;28;20110;-78
2023/01/03 06:28:41;;;;;;;22.48;11.57;;;8.50;99.90;;;;;;5111358;28;20418;-76
2023/01/03 06:31:07;;;;;;;22.77;11.80;;;8.40;99.90;;;;;;5112394;28;20061;-78
2023/01/03 06:33:33;;;;;;;25.15;11.45;;;8.30;99.90;;;;;;5112483;28;20048;-78
2023/01/03 06:36:07;;;;;;;24.35;11.65;;;8.30;99.90;;;;;;5111796;28;20111;-78
2023/01/03 06:38:33;;;;;;;19.33;11.02;;;8.30;99.90;;;;;;5112274;28;20039;-79
2023/01/03 06:40:59;;;;;;;22.02;11.52;;;8.40;99.90;;;;;;5112199;28;20181;-78
2023/01/03 06:43:26;;;;;;;22.65;11.93;;;8.30;99.90;;;;;;5111044;28;20528;-77
2023/01/03 06:54:20;;;;;;;33.47;13.45;;;8.40;99.90;;;;;;5112442;28;20053;-78
2023/01/03 06:56:46;;;;;;;28.25;12.73;;;8.30;99.90;;;;;;5110991;28;20466;-78
2023/01/03 06:59:12;;;;;;;24.25;12.90;;;8.30;99.90;;;;;;5110642;28;20062;-77
2023/01/03 07:01:38;;;;;;;24.95;12.95;;;8.30;99.90;;;;;;5111808;28;20024;-78
2023/01/03 07:04:03;;;;;;;26.00;13.45;;;8.30;99.90;;;;;;5111672;28;20028;-77
2023/01/03 07:06:29;;;;;;;23.40;13.05;;;8.30;99.90;;;;;;5111448;28;20027;-78
2023/01/03 07:08:55;;;;;;;24.83;12.88;;;8.30;99.90;;;;;;5111689;28;20438;-78
2023/01/03 07:11:22;;;;;;;27.92;13.30;;;8.20;99.90;;;;;;5110710;28;20032;-78
2023/01/03 07:13:57;;;;;;;20.97;12.43;;;8.20;99.90;;;;;;5110708;28;20430;-78
2023/01/03 07:16:25;;;;;;;22.70;12.10;;;8.20;99.90;;;;;;5110170;28;20358;-77
2023/01/03 07:18:51;;;;;;;24.95;13.07;;;8.20;99.90;;;;;;5111938;28;20125;-77
2023/01/03 07:21:17;;;;;;;29.50;14.10;;;8.20;99.90;;;;;;5111832;28;20447;-78
2023/01/03 07:23:42;;;;;;;27.23;14.68;;;8.30;99.90;;;;;;5111698;28;20030;-78
2023/01/03 07:26:08;;;;;;;26.95;14.77;;;8.20;99.90;;;;;;5111279;28;20036;-78
2023/01/03 07:28:34;;;;;;;29.83;13.90;;;8.20;99.90;;;;;;5111209;28;20020;-78
2023/01/03 07:31:01;;;;;;;28.85;14.02;;;8.30;99.90;;;;;;5111491;28;20032;-76
2023/01/03 07:33:27;;;;;;;25.98;13.95;;;8.20;99.90;;;;;;5111293;28;20016;-77
2023/01/03 07:36:02;;;;;;;26.83;14.13;;;8.30;99.90;;;;;;5111531;28;20024;-78
2023/01/03 07:38:28;;;;;;;30.38;14.70;;;8.30;99.90;;;;;;5111077;28;20036;-78
2023/01/03 07:40:58;;;;;;;27.60;13.02;;;8.30;99.90;;;;;;5111067;28;20115;-79
2023/01/03 07:43:36;;;;;;;27.48;14.40;;;8.30;99.90;;;;;;5110026;28;20110;-79
2023/01/03 07:46:23;;;;;;;31.42;15.60;;;8.40;99.90;;;;;;5110221;28;20129;-79
2023/01/03 07:48:51;;;;;;;28.23;14.63;;;8.30;99.90;;;;;;5111022;28;20031;-77
2023/01/03 07:51:19;;;;;;;26.48;14.93;;;8.40;99.90;;;;;;5110921;28;20019;-77
2023/01/03 07:53:48;;;;;;;26.40;14.48;;;8.40;99.90;;;;;;5111697;28;20062;-79
2023/01/03 07:56:18;;;;;;;29.50;15.68;;;8.40;99.90;;;;;;5109737;28;20020;-77
2023/01/03 07:58:43;;;;;;;26.95;14.25;;;8.40;99.90;;;;;;5110973;28;20031;-78
2023/01/03 08:01:21;;;;;;;25.67;13.63;;;8.40;99.90;;;;;;5110589;28;20517;-77
2023/01/03 08:03:46;;;;;;;27.10;13.98;;;8.40;99.90;;;;;;5109572;28;20031;-78
2023/01/03 08:06:17;;;;;;;28.23;14.50;;;8.30;99.90;;;;;;5111097;28;20024;-77
2023/01/03 08:08:43;;;;;;;31.08;13.73;;;8.30;99.90;;;;;;5110904;28;20039;-78
2023/01/03 08:13:58;;;;;;;26.00;13.63;;;8.20;99.90;;;;;;5110852;28;20422;-78
2023/01/03 08:16:24;;;;;;;24.00;14.13;;;8.20;99.90;;;;;;5110495;28;20553;-78
2023/01/03 08:18:49;;;;;;;28.10;13.75;;;8.20;99.90;;;;;;5110602;28;20358;-78
2023/01/03 08:21:15;;;;;;;35.55;17.77;;;8.20;99.90;;;;;;5114215;28;20039;-78
2023/01/03 08:23:42;;;;;;;27.50;13.63;;;8.20;99.90;;;;;;5115279;28;20047;-78
2023/01/03 08:26:13;;;;;;;24.42;14.00;;;8.20;99.90;;;;;;5113648;28;20027;-77
2023/01/03 08:28:41;;;;;;;29.25;14.35;;;8.20;99.90;;;;;;5114713;27;20031;-78
2023/01/03 08:31:20;;;;;;;24.73;15.95;;;8.20;99.90;;;;;;5114867;28;20028;-76
2023/01/03 08:33:53;;;;;;;29.02;14.38;;;8.20;99.90;;;;;;5114640;27;20047;-78
2023/01/03 08:36:21;;;;;;;32.05;14.52;;;8.20;99.90;;;;;;5113485;28;20024;-78
2023/01/03 08:39:03;;;;;;;28.85;13.65;;;8.20;99.90;;;;;;5115212;28;20038;-77
2023/01/03 08:41:32;;;;;;;21.88;13.55;;;8.20;99.90;;;;;;5114440;27;20035;-78
2023/01/03 08:44:01;;;;;;;28.92;14.73;;;8.20;99.90;;;;;;5113173;28;20032;-77
2023/01/03 08:46:28;;;;;;;23.63;13.82;;;8.20;99.90;;;;;;5113357;28;20031;-77
2023/01/03 08:48:55;;;;;;;32.40;15.10;;;8.30;99.90;;;;;;5113241;28;20055;-79
2023/01/03 08:51:23;;;;;;;27.73;15.85;;;8.30;99.90;;;;;;5114474;28;20339;-78
2023/01/03 08:53:49;;;;;;;34.72;15.20;;;8.30;99.90;;;;;;5114869;28;20157;-78
2023/01/03 08:56:17;;;;;;;28.45;15.80;;;8.30;99.90;;;;;;5114399;28;20110;-78
2023/01/03 08:58:42;;;;;;;29.23;15.00;;;8.30;99.90;;;;;;5113153;28;20031;-79
2023/01/03 09:01:10;;;;;;;24.15;14.50;;;8.40;99.90;;;;;;5113491;28;20032;-79
2023/01/03 09:03:36;;;;;;;34.75;17.70;;;8.40;99.90;;;;;;5112881;28;20043;-77
2023/01/03 09:06:03;;;;;;;31.45;14.30;;;8.50;99.90;;;;;;5113609;28;20019;-77
2023/01/03 09:08:30;;;;;;;27.58;13.48;;;8.50;99.90;;;;;;5112955;28;20024;-78
2023/01/03 09:10:56;;;;;;;30.20;14.23;;;8.50;99.90;;;;;;5113941;28;20036;-77
2023/01/03 09:13:22;;;;;;;27.05;14.45;;;8.50;99.90;;;;;;5112840;28;20093;-78
2023/01/03 09:15:48;;;;;;;23.60;14.23;;;8.60;99.90;;;;;;5112272;28;20047;-78
2023/01/03 09:18:13;;;;;;;25.05;13.82;;;8.60;99.90;;;;;;5114134;28;20020;-76
2023/01/03 09:20:39;;;;;;;22.20;12.63;;;8.70;99.90;;;;;;5113671;28;20369;-78
2023/01/03 09:23:05;;;;;;;26.75;14.23;;;8.70;99.90;;;;;;5112382;28;20067;-77
2023/01/03 09:25:31;;;;;;;27.88;14.23;;;8.70;99.90;;;;;;5112478;28;20102;-76
2023/01/03 09:27:56;;;;;;;29.13;14.20;;;8.80;99.90;;;;;;5112391;28;20066;-77
2023/01/03 09:30:22;;;;;;;24.48;13.82;;;8.60;99.90;;;;;;5113005;28;20020;-77
2023/01/03 09:32:51;;;;;;;25.40;13.80;;;8.60;99.90;;;;;;5113892;28;20028;-78
2023/01/03 09:35:16;;;;;;;30.67;16.08;;;8.70;99.90;;;;;;5113386;28;20111;-77
2023/01/03 09:37:45;;;;;;;25.13;13.82;;;8.70;99.90;;;;;;5113274;28;20431;-78
2023/01/03 09:40:11;;;;;;;29.00;14.07;;;8.70;99.90;;;;;;5112326;28;20465;-77
2023/01/03 09:45:28;;;;;;;24.35;14.27;;;8.70;99.90;;;;;;5113791;27;20319;-77
2023/01/03 09:47:54;;;;;;;25.27;14.80;;;8.80;99.90;;;;;;5113925;28;20016;-77
2023/01/03 09:50:26;;;;;;;24.00;14.90;;;8.80;99.90;;;;;;5112912;28;20028;-78
2023/01/03 10:04:33;;;;;;;22.17;12.05;;;8.80;99.90;;;;;;5112726;28;20099;-78
2023/01/03 10:07:26;;;;;;;25.48;14.13;;;8.80;99.90;;;;;;5112818;28;20031;-77
2023/01/03 10:10:35;;;;;;;25.33;12.05;;;8.80;99.90;;;;;;5112409;28;20035;-78
2023/01/03 10:13:37;;;;;;;27.77;15.18;;;8.90;99.90;;;;;;5069407;28;20087;-78
2023/01/03 10:16:25;;;;;;;22.92;13.07;;;8.80;99.90;;;;;;5079239;28;20044;-78
2023/01/03 10:18:59;;;;;;;24.65;14.02;;;8.80;99.90;;;;;;5091036;28;20035;-78
2023/01/03 10:21:48;;;;;;;22.95;12.65;;;8.90;99.90;;;;;;5091149;28;20133;-78
2023/01/03 10:24:23;;;;;;;23.95;12.40;;;8.90;99.90;;;;;;5091446;28;20100;-78
2023/01/03 10:26:54;;;;;;;26.10;13.15;;;8.90;99.90;;;;;;5092259;28;20047;-78
2023/01/03 10:29:20;;;;;;;26.70;13.50;;;9.00;99.90;;;;;;5090976;28;20053;-78
2023/01/03 10:32:23;;;;;;;24.35;11.98;;;9.10;99.90;;;;;;5092119;28;20036;-78
2023/01/03 10:35:29;;;;;;;19.90;11.35;;;9.00;99.90;;;;;;5090841;28;20112;-79
2023/01/03 10:37:56;;;;;;;19.65;11.25;;;9.10;99.90;;;;;;5080612;28;20259;-79
2023/01/03 10:40:41;;;;;;;19.10;10.32;;;9.10;99.90;;;;;;5091464;28;20028;-77
2023/01/03 10:43:18;;;;;;;19.92;10.57;;;9.10;99.90;;;;;;5091046;28;20032;-77
2023/01/03 10:45:56;;;;;;;21.85;11.20;;;9.00;99.90;;;;;;5092067;28;20036;-81
2023/01/03 10:48:23;;;;;;;23.17;11.27;;;9.00;99.90;;;;;;5090729;28;20460;-79
2023/01/03 10:50:49;;;;;;;20.15;10.05;;;9.10;99.90;;;;;;5090949;28;20126;-78
2023/01/03 10:53:19;;;;;;;19.58;9.63;;;9.20;99.90;;;;;;5091613;28;20157;-78
2023/01/03 10:55:52;;;;;;;24.30;10.77;;;9.20;99.90;;;;;;5091689;28;20112;-78
2023/01/03 10:58:23;;;;;;;17.98;9.18;;;9.30;99.90;;;;;;5090217;28;20028;-78
2023/01/03 11:00:51;;;;;;;19.52;10.13;;;9.20;99.90;;;;;;5090132;28;20035;-78
2023/01/03 11:03:22;;;;;;;21.47;10.83;;;9.30;99.90;;;;;;5091042;28;20078;-78
2023/01/03 11:06:06;;;;;;;19.40;10.27;;;9.20;99.90;;;;;;5091761;28;20252;-78
2023/01/03 11:08:47;;;;;;;17.83;10.95;;;9.30;99.90;;;;;;5089940;28;20354;-78
2023/01/03 11:11:35;;;;;;;21.20;9.50;;;9.40;99.90;;;;;;5091185;28;20467;-79
2023/01/03 11:14:22;;;;;;;20.42;8.63;;;9.40;99.90;;;;;;5090900;28;20092;-78
2023/01/03 11:17:00;;;;;;;16.10;8.70;;;9.40;99.90;;;;;;5106552;28;20047;-77
2023/01/03 11:19:28;;;;;;;14.43;7.47;;;9.40;99.90;;;;;;5110243;28;20252;-77
2023/01/03 11:22:02;;;;;;;17.13;8.77;;;9.50;99.70;;;;;;5111578;28;20035;-78
2023/01/03 11:24:55;;;;;;;16.23;8.70;;;9.50;99.70;;;;;;5111528;28;20026;-80
2023/01/03 11:27:41;;;;;;;16.33;8.15;;;9.50;99.70;;;;;;5110019;28;20019;-77
2023/01/03 11:30:24;;;;;;;16.83;9.02;;;9.50;99.90;;;;;;5089813;28;20080;-77
2023/01/03 11:33:07;;;;;;;19.10;9.27;;;9.70;99.90;;;;;;5110322;28;20100;-78
2023/01/03 11:35:58;;;;;;;19.10;9.23;;;9.90;99.90;;;;;;5109765;28;20038;-78
2023/01/03 11:38:34;;;;;;;13.98;7.05;;;10.20;99.80;;;;;;5111148;28;20112;-78
2023/01/03 11:41:26;;;;;;;13.88;7.10;;;10.90;99.50;;;;;;5111321;28;20035;-78
2023/01/03 11:44:12;;;;;;;14.07;7.45;;;11.60;98.40;;;;;;5109873;28;20040;-79
2023/01/03 11:47:05;;;;;;;17.13;6.97;;;12.30;97.80;;;;;;5111260;28;20034;-78
2023/01/03 11:50:13;;;;;;;15.32;6.00;;;13.00;97.10;;;;;;5111035;28;20480;-81
2023/01/03 11:53:19;;;;;;;14.38;6.03;;;13.40;95.70;;;;;;5109735;28;20024;-79
2023/01/03 11:56:37;;;;;;;9.82;4.97;;;13.50;94.60;;;;;;5111454;28;20020;-79
2023/01/03 11:59:34;;;;;;;11.77;4.95;;;13.50;94.30;;;;;;5093337;28;20460;-78
2023/01/03 12:02:22;;;;;;;9.75;5.07;;;13.50;94.90;;;;;;5110860;28;20496;-78
2023/01/03 12:05:06;;;;;;;;;;;13.40;94.70;;;;;;5110847;28;20053;-78
2023/01/03 12:07:42;;;;;;;12.55;4.88;;;13.40;94.70;;;;;;5109614;28;19943;-79
2023/01/03 12:10:17;;;;;;;5.45;3.85;;;13.40;94.40;;;;;;5110530;28;20024;-78
2023/01/03 12:12:51;;;;;;;8.90;4.35;;;13.20;94.60;;;;;;5110784;28;20031;-78
2023/01/03 12:15:25;;;;;;;8.02;3.97;;;13.20;94.50;;;;;;5110321;28;20044;-79
2023/01/03 12:18:19;;;;;;;9.65;3.58;;;13.20;94.50;;;;;;5111443;28;20047;-78
2023/01/03 12:20:52;;;;;;;7.75;3.90;;;13.30;94.20;;;;;;5111078;28;20024;-78
2023/01/03 12:23:53;;;;;;;11.43;4.35;;;13.30;94.40;;;;;;5109559;28;20032;-77
2023/01/03 12:26:23;;;;;;;8.57;3.65;;;13.20;94.30;;;;;;5103238;28;20092;-78
2023/01/03 12:29:09;;;;;;;6.15;3.60;;;13.10;94.20;;;;;;5109498;28;20020;-79
2023/01/03 12:31:42;;;;;;;8.90;4.10;;;13.00;94.30;;;;;;5110563;28;20203;-80
2023/01/03 12:34:29;;;;;;;7.70;3.60;;;12.70;94.30;;;;;;5110425;28;20357;-79
2023/01/03 12:37:28;;;;;;;6.80;3.08;;;12.60;94.70;;;;;;5110837;28;20123;-78
2023/01/03 12:39:59;;;;;;;10.10;3.33;;;12.50;94.50;;;;;;5110751;28;20076;-79
2023/01/03 12:42:34;;;;;;;8.07;3.28;;;12.50;94.60;;;;;;5110788;28;20568;-80
2023/01/03 12:45:37;;;;;;;10.25;3.45;;;12.20;94.80;;;;;;5109956;28;20048;-78
2023/01/03 12:48:44;;;;;;;13.18;5.88;;;12.10;94.90;;;;;;5110785;28;20123;-78
2023/01/03 12:51:14;;;;;;;7.85;3.35;;;12.10;95.00;;;;;;5104852;28;20556;-80
2023/01/03 12:53:46;;;;;;;7.47;2.85;;;12.10;95.20;;;;;;5110864;28;20116;-79
2023/01/03 12:56:49;;;;;;;13.18;3.28;;;12.00;95.30;;;;;;5110365;28;20097;-79
2023/01/03 12:59:21;;;;;;;5.57;2.63;;;12.00;95.30;;;;;;5110656;28;20032;-79
2023/01/03 13:01:57;;;;;;;6.00;3.10;;;11.90;95.10;;;;;;5109167;28;20046;-79
2023/01/03 13:04:40;;;;;;;9.20;2.92;;;11.90;95.10;;;;;;5110350;28;20184;-78
2023/01/03 13:07:11;;;;;;;6.18;2.80;;;11.90;95.30;;;;;;5113310;28;20035;-79
2023/01/03 13:09:46;;;;;;;8.30;2.97;;;11.80;95.30;;;;;;5113076;28;20039;-78
2023/01/03 13:12:18;;;;;;;5.60;2.70;;;11.70;95.20;;;;;;5114462;28;20066;-77
2023/01/03 13:15:02;;;;;;;7.05;2.50;;;11.70;95.50;;;;;;5112820;28;20027;-78
2023/01/03 13:17:30;;;;;;;7.80;2.60;;;11.60;95.50;;;;;;5112771;28;20044;-79
2023/01/03 13:19:57;;;;;;;10.52;3.33;;;11.60;95.50;;;;;;5112716;28;20032;-78
2023/01/03 13:22:43;;;;;;;7.50;3.13;;;11.50;95.50;;;;;;5113885;28;20065;-78
2023/01/03 13:25:30;;;;;;;7.47;2.60;;;11.40;95.70;;;;;;5112855;28;20365;-78
2023/01/03 13:28:05;;;;;;;8.05;2.47;;;11.50;95.90;;;;;;5112830;28;20031;-78
2023/01/03 13:30:34;;;;;;;8.98;2.90;;;11.50;95.90;;;;;;5114020;28;20050;-79
2023/01/03 13:33:08;;;;;;;7.40;2.63;;;11.50;95.90;;;;;;5113340;28;20114;-78
2023/01/03 13:35:59;;;;;;;7.53;2.45;;;11.40;95.80;;;;;;5113924;28;20107;-79
2023/01/03 13:38:30;;;;;;;5.32;2.80;;;11.30;95.90;;;;;;5107361;28;20039;-80
2023/01/03 13:40:59;;;;;;;9.00;2.50;;;11.30;95.90;;;;;;5112443;28;20031;-80
2023/01/03 13:43:36;;;;;;;3.67;1.85;;;11.20;96.30;;;;;;5113534;28;20031;-80
2023/01/03 13:46:24;;;;;;;7.45;3.33;;;11.20;96.10;;;;;;5113669;28;20043;-78
2023/01/03 13:49:16;;;;;;;10.55;2.85;;;11.20;96.20;;;;;;5113333;27;20028;-77
2023/01/03 13:51:57;;;;;;;8.52;3.55;;;11.00;96.50;;;;;;5106551;28;20031;-79
2023/01/03 13:54:26;;;;;;;9.82;2.58;;;11.10;96.80;;;;;;5112109;28;20023;-79
2023/01/03 13:56:58;;;;;;;14.68;5.50;;;11.20;97.00;;;;;;5113483;28;20061;-78
2023/01/03 13:59:43;;;;;;;8.48;2.58;;;11.10;97.10;;;;;;5112031;28;20373;-77
2023/01/03 14:02:09;;;;;;;9.25;2.17;;;11.10;97.20;;;;;;5113041;28;20024;-78
2023/01/03 14:05:09;;;;;;;8.00;2.05;;;11.20;97.30;;;;;;5113324;28;20030;-79
2023/01/03 14:08:13;;;;;;;4.55;1.80;;;11.10;97.70;;;;;;5113273;28;20024;-79
2023/01/03 14:11:06;;;;;;;5.32;1.92;;;11.10;97.70;;;;;;5112149;28;20035;-78
2023/01/03 14:13:51;;;;;;;6.63;2.00;;;11.00;97.90;;;;;;5113568;27;20121;-78